TimeMDT,TemperatureF,Dew PointF,Humidity,Sea Level PressureIn,VisibilityMPH,Wind Direction,Wind SpeedMPH,Gust SpeedMPH,PrecipitationIn,Events,Conditions,WindDirDegrees,DateUTC
12:00 AM,45,41,81,,,WSW,2.3,,,,,240,2013-06-11 06:00:00
12:00 AM,44.8,41.0,87,-9999,-9999.0,WSW,2.3,-,N/A,,Unknown,240,2013-06-11 06:00:00
1:00 AM,45.0,42.3,90,-9999,-9999.0,South,1.2,-,N/A,,Unknown,190,2013-06-11 07:00:00
2:00 AM,45.7,43.0,90,-9999,-9999.0,Calm,Calm,-,N/A,,Unknown,0,2013-06-11 08:00:00
3:00 AM,44.4,41.4,89,-9999,-9999.0,NE,1.2,-,N/A,,Unknown,40,2013-06-11 09:00:00
4:00 AM,44.6,42.4,92,-9999,-9999.0,East,2.3,-,N/A,,Unknown,80,2013-06-11 10:00:00
5:00 AM,46.2,41.7,84,-9999,-9999.0,NNE,6.9,-,N/A,,Unknown,30,2013-06-11 11:00:00
6:00 AM,45,41,79,,,NNE,4.6,,,,,30,2013-06-11 12:00:00
6:00 AM,45.0,40.6,85,-9999,-9999.0,NNE,4.6,-,N/A,,Unknown,30,2013-06-11 12:00:00
7:00 AM,43.9,40.3,87,-9999,-9999.0,NE,6.9,-,N/A,,Unknown,50,2013-06-11 13:00:00
8:00 AM,45.1,37.0,73,-9999,-9999.0,ENE,6.9,-,N/A,,Unknown,70,2013-06-11 14:00:00
9:00 AM,45.7,36.7,71,-9999,-9999.0,East,10.4,-,N/A,,Unknown,80,2013-06-11 15:00:00
10:00 AM,46.0,36.9,70,-9999,-9999.0,ENE,10.4,-,N/A,,Unknown,70,2013-06-11 16:00:00
11:00 AM,47.5,37.6,69,-9999,-9999.0,ENE,6.9,-,N/A,,Unknown,60,2013-06-11 17:00:00
12:00 PM,50,38,53,,,NE,4.6,,,,,40,2013-06-11 18:00:00
12:00 PM,50.2,38.1,63,-9999,-9999.0,NE,4.6,-,N/A,,Unknown,40,2013-06-11 18:00:00
1:00 PM,51.8,39.9,64,-9999,-9999.0,ENE,5.8,-,N/A,,Unknown,60,2013-06-11 19:00:00
2:00 PM,53.1,41.4,64,-9999,-9999.0,NE,6.9,-,N/A,,Unknown,50,2013-06-11 20:00:00
3:00 PM,55.0,42.1,62,-9999,-9999.0,NE,6.9,-,N/A,,Unknown,50,2013-06-11 21:00:00
4:00 PM,55.6,42.3,61,-9999,-9999.0,NE,8.1,-,N/A,,Unknown,40,2013-06-11 22:00:00
5:00 PM,55.0,43.0,64,-9999,-9999.0,ENE,6.9,-,N/A,,Unknown,60,2013-06-11 23:00:00
6:00 PM,55,44,55,,,NNE,6.9,,,,,30,2013-06-12 00:00:00
6:00 PM,55.0,43.5,65,-9999,-9999.0,NNE,6.9,-,N/A,,Unknown,30,2013-06-12 00:00:00
7:00 PM,53.4,43.0,68,-9999,-9999.0,ENE,8.1,-,N/A,,Unknown,60,2013-06-12 01:00:00
8:00 PM,52.7,44.8,74,-9999,-9999.0,NNW,3.5,-,N/A,,Unknown,330,2013-06-12 02:00:00
9:00 PM,48.6,46.4,92,-9999,-9999.0,WSW,4.6,-,0.17,,Unknown,240,2013-06-12 03:00:00
10:00 PM,47.8,46.0,93,-9999,-9999.0,NW,1.2,-,0.02,,Unknown,310,2013-06-12 04:00:00
11:00 PM,48.4,46.4,93,-9999,-9999.0,NNW,2.3,-,N/A,,Unknown,330,2013-06-12 05:00:00